OMAD/AZI METAR and TAF weather

Enter ICAO airport designator
Station Type Date Time Source
OMAD METAR 2021/03/02 16:00 UTC NOAA

OMAD 021600Z 02008KT CAVOK 26/19 Q1014 NOSIG


Station Type Date Time Source
OMAD Decoded METAR 2021/03/02 16:00 UTC NOAA

Abu Dhabi Bateen Airport, United Arab Emirates (OMAD) 24-26N 054-28E 3M
Mar 02, 2021 - 11:00 AM EST / 2021.03.02 1600 UTC
Wind: from the NNE (020 degrees) at 9 MPH (8 KT):0
Visibility: greater than 7 mile(s):0
Temperature: 78 F (26 C)
Dew Point: 66 F (19 C)
Relative Humidity: 65%
Pressure (altimeter): 29.94 in. Hg (1014 hPa)
ob: OMAD 021600Z 02008KT CAVOK 26/19 Q1014 NOSIG
cycle: 16

Station Type Date Time Source
OMAD TAF 2021/03/02 12:09 UTC NOAA

TAF TAF OMAD 021100Z 0212/0318 29007KT CAVOK
BECMG 0212/0213 36007KT
BECMG 0302/0304 16006KT
BECMG 0308/0310 32010KT

Example: see airport list